createdAt,value
2019-03-26T00:00:52.819Z,11.33
2019-03-26T00:03:19.331Z,11.00
2019-03-26T00:05:45.777Z,11.90
2019-03-26T00:08:12.266Z,11.55
2019-03-26T00:10:38.653Z,13.20
2019-03-26T00:13:05.198Z,13.30
2019-03-26T00:15:31.679Z,13.95
2019-03-26T00:17:58.177Z,15.35
2019-03-26T00:20:25.011Z,15.65
2019-03-26T00:22:51.394Z,14.70
2019-03-26T00:25:17.698Z,14.75
2019-03-26T00:27:44.125Z,14.73
2019-03-26T00:30:11.117Z,14.55
2019-03-26T00:32:37.551Z,13.93
2019-03-26T00:35:04.477Z,13.50
2019-03-26T00:37:30.778Z,14.70
2019-03-26T00:39:57.521Z,13.43
2019-03-26T00:42:24.007Z,12.03
2019-03-26T00:44:50.482Z,11.83
2019-03-26T00:47:16.805Z,11.33
2019-03-26T00:49:43.212Z,11.12
2019-03-26T00:52:09.730Z,11.68
2019-03-26T00:54:36.531Z,11.30
2019-03-26T00:57:03.009Z,11.88
2019-03-26T00:59:29.675Z,12.33
2019-03-26T01:01:56.428Z,12.82
2019-03-26T01:04:32.637Z,12.63
2019-03-26T01:06:51.411Z,12.07
2019-03-26T01:09:17.799Z,13.95
2019-03-26T01:11:44.196Z,12.53
2019-03-26T01:14:10.882Z,12.10
2019-03-26T01:16:37.480Z,12.65
2019-03-26T01:19:03.954Z,12.47
2019-03-26T01:21:31.127Z,13.05
2019-03-26T01:23:57.602Z,13.20
2019-03-26T01:26:24.008Z,13.65
2019-03-26T01:28:50.323Z,16.02
2019-03-26T01:31:16.841Z,14.73
2019-03-26T01:33:43.396Z,15.63
2019-03-26T01:36:09.697Z,14.45
2019-03-26T01:38:36.252Z,15.10
2019-03-26T01:41:02.735Z,13.68
2019-03-26T01:43:29.256Z,14.83
2019-03-26T01:45:55.650Z,14.83
2019-03-26T01:48:22.062Z,13.22
2019-03-26T01:50:48.546Z,14.47
2019-03-26T01:53:15.059Z,16.48
2019-03-26T01:55:41.458Z,12.90
2019-03-26T01:58:07.945Z,12.75
2019-03-26T02:00:34.734Z,12.13
2019-03-26T02:03:01.262Z,12.80
2019-03-26T02:05:27.779Z,13.95
2019-03-26T02:07:54.303Z,14.25
2019-03-26T02:10:20.838Z,13.53
2019-03-26T02:12:48.691Z,13.83
2019-03-26T02:15:26.463Z,14.85
2019-03-26T02:17:52.902Z,16.50
2019-03-26T02:20:19.758Z,14.53
2019-03-26T02:22:46.096Z,13.98
2019-03-26T02:25:12.507Z,13.98
2019-03-26T02:27:38.903Z,14.83
2019-03-26T02:30:05.770Z,14.10
2019-03-26T02:32:32.380Z,14.10
2019-03-26T02:35:16.352Z,14.47
2019-03-26T02:37:27.208Z,16.30
2019-03-26T02:39:53.726Z,14.93
2019-03-26T02:42:20.216Z,15.00
2019-03-26T02:44:46.718Z,14.60
2019-03-26T02:47:13.513Z,14.75
2019-03-26T02:49:40.019Z,14.95
2019-03-26T02:52:06.527Z,15.60
2019-03-26T02:54:33.056Z,16.70
2019-03-26T02:56:59.645Z,18.55
2019-03-26T02:59:26.383Z,18.82
2019-03-26T03:01:52.996Z,19.60
2019-03-26T03:04:19.385Z,18.40
2019-03-26T03:06:45.888Z,16.70
2019-03-26T03:09:12.647Z,17.82
2019-03-26T03:11:39.217Z,17.12
2019-03-26T03:14:05.810Z,18.85
2019-03-26T03:16:32.235Z,17.37
2019-03-26T03:18:58.617Z,17.87
2019-03-26T03:21:25.594Z,17.48
2019-03-26T03:23:52.280Z,19.27
2019-03-26T03:26:18.852Z,22.02
2019-03-26T03:28:45.537Z,20.68
2019-03-26T03:31:12.048Z,20.60
2019-03-26T03:33:38.552Z,20.55
2019-03-26T03:36:05.365Z,20.82
2019-03-26T03:38:31.857Z,22.20
2019-03-26T03:40:58.365Z,19.40
2019-03-26T03:43:25.092Z,20.17
2019-03-26T03:45:52.498Z,21.65
2019-03-26T03:48:20.480Z,21.12
2019-03-26T03:50:47.457Z,22.55
2019-03-26T03:53:16.794Z,22.22
2019-03-26T03:55:43.590Z,21.73
2019-03-26T03:58:10.318Z,19.65
2019-03-26T04:00:38.603Z,20.40
2019-03-26T04:03:08.031Z,21.20
2019-03-26T04:05:35.215Z,24.75
2019-03-26T04:08:02.089Z,24.45
2019-03-26T04:10:28.462Z,23.12
2019-03-26T04:12:54.996Z,24.27
2019-03-26T04:15:21.597Z,26.00
2019-03-26T04:17:48.266Z,23.57
2019-03-26T04:20:14.957Z,23.30
2019-03-26T04:22:41.598Z,22.75
2019-03-26T04:25:08.346Z,22.17
2019-03-26T04:27:36.677Z,22.05
2019-03-26T04:30:07.677Z,23.47
2019-03-26T04:32:35.554Z,24.60
2019-03-26T04:35:04.819Z,23.67
2019-03-26T04:37:31.210Z,23.83
2019-03-26T04:39:57.632Z,24.12
2019-03-26T04:42:24.111Z,21.25
2019-03-26T04:44:50.619Z,21.37
2019-03-26T04:47:16.995Z,21.52
2019-03-26T04:49:43.411Z,21.68
2019-03-26T04:52:09.787Z,21.95
2019-03-26T04:54:36.330Z,22.05
2019-03-26T04:57:02.806Z,23.18
2019-03-26T04:59:29.359Z,23.18
2019-03-26T05:01:55.740Z,22.75
2019-03-26T05:04:22.163Z,22.20
2019-03-26T05:06:48.804Z,20.85
2019-03-26T05:09:15.287Z,20.90
2019-03-26T05:11:41.747Z,20.85
2019-03-26T05:14:08.162Z,20.70
2019-03-26T05:16:34.492Z,21.80
2019-03-26T05:19:01.083Z,22.10
2019-03-26T05:21:27.606Z,21.17
2019-03-26T05:23:54.198Z,22.80
2019-03-26T05:26:20.671Z,22.30
2019-03-26T05:28:47.125Z,23.02
2019-03-26T05:31:13.490Z,23.70
2019-03-26T05:33:40.082Z,22.77
2019-03-26T05:36:06.654Z,24.82
2019-03-26T05:38:33.031Z,26.93
2019-03-26T05:40:59.638Z,28.73
2019-03-26T05:43:26.019Z,27.37
2019-03-26T05:45:52.710Z,27.48
2019-03-26T05:48:19.201Z,27.50
2019-03-26T05:50:45.783Z,27.82
2019-03-26T05:53:12.776Z,25.88
2019-03-26T05:55:39.083Z,23.38
2019-03-26T05:58:05.468Z,21.57
2019-03-26T06:00:32.054Z,21.23
2019-03-26T06:02:58.867Z,24.25
2019-03-26T06:05:25.271Z,23.15
2019-03-26T06:07:51.692Z,24.05
2019-03-26T06:10:18.060Z,24.02
2019-03-26T06:12:44.581Z,25.85
2019-03-26T06:15:11.477Z,25.52
2019-03-26T06:17:38.194Z,25.05
2019-03-26T06:20:06.967Z,25.62
2019-03-26T06:22:34.603Z,22.52
2019-03-26T06:25:01.020Z,23.67
2019-03-26T06:27:29.091Z,21.80
2019-03-26T06:29:56.183Z,22.15
2019-03-26T06:32:22.674Z,20.88
2019-03-26T06:34:50.123Z,21.15
2019-03-26T06:37:18.485Z,23.07
2019-03-26T06:39:46.629Z,22.93
2019-03-26T06:42:13.190Z,22.42
2019-03-26T06:44:39.584Z,22.27
2019-03-26T06:47:06.628Z,18.92
2019-03-26T06:49:33.110Z,20.88
2019-03-26T06:51:59.575Z,20.30
2019-03-26T06:54:25.997Z,20.60
2019-03-26T06:56:52.724Z,20.10
2019-03-26T06:59:19.106Z,18.85
2019-03-26T07:01:45.678Z,20.68
2019-03-26T07:04:12.283Z,21.17
2019-03-26T07:06:38.763Z,21.50
2019-03-26T07:09:06.295Z,21.90
2019-03-26T07:11:33.007Z,21.37
2019-03-26T07:13:59.282Z,21.57
2019-03-26T07:16:25.868Z,18.95
2019-03-26T07:18:52.754Z,15.93
2019-03-26T07:21:19.571Z,16.25
2019-03-26T07:23:46.018Z,15.93
2019-03-26T07:26:12.686Z,17.42
2019-03-26T07:28:39.289Z,18.35
2019-03-26T07:31:05.807Z,19.40
2019-03-26T07:33:32.325Z,19.05
2019-03-26T07:35:58.884Z,18.65
2019-03-26T07:38:25.600Z,17.15
2019-03-26T07:40:52.303Z,15.75
2019-03-26T07:43:18.883Z,16.85
2019-03-26T07:45:45.304Z,17.40
2019-03-26T07:48:11.715Z,20.65
2019-03-26T07:50:38.215Z,21.30
2019-03-26T07:53:04.744Z,20.35
2019-03-26T07:55:31.120Z,16.37
2019-03-26T07:57:57.406Z,17.80
2019-03-26T08:00:36.143Z,15.53
2019-03-26T08:03:03.427Z,13.38
2019-03-26T08:05:30.260Z,14.43
2019-03-26T08:07:58.574Z,13.85
2019-03-26T08:10:24.887Z,13.30
2019-03-26T08:12:51.265Z,14.63
2019-03-26T08:15:20.190Z,14.35
2019-03-26T08:17:46.178Z,14.07
2019-03-26T08:20:12.991Z,14.75
2019-03-26T08:22:39.402Z,16.35
2019-03-26T08:25:06.617Z,15.75
2019-03-26T08:27:33.023Z,15.15
2019-03-26T08:29:59.421Z,14.35
2019-03-26T08:32:25.871Z,13.15
2019-03-26T08:34:52.315Z,12.43
2019-03-26T08:37:18.870Z,11.43
2019-03-26T08:39:45.903Z,12.18
2019-03-26T08:42:12.445Z,13.03
2019-03-26T08:44:39.115Z,12.05
2019-03-26T08:47:05.494Z,11.48
2019-03-26T08:49:31.799Z,11.90
2019-03-26T08:51:58.656Z,10.65
2019-03-26T08:54:25.215Z,11.48
2019-03-26T08:56:51.598Z,11.35
2019-03-26T08:59:18.186Z,11.68
2019-03-26T09:01:44.563Z,12.50
2019-03-26T09:04:10.884Z,12.20
2019-03-26T09:06:37.566Z,11.22
2019-03-26T09:09:06.787Z,13.32
2019-03-26T09:11:33.490Z,12.80
2019-03-26T09:13:59.906Z,13.68
2019-03-26T09:16:26.530Z,11.30
2019-03-26T09:18:53.373Z,9.20
2019-03-26T09:21:20.074Z,12.50
2019-03-26T09:23:46.573Z,43.23
2019-03-26T09:26:13.047Z,25.80
2019-03-26T09:28:39.543Z,34.13
2019-03-26T09:31:05.950Z,13.90
2019-03-26T09:33:32.559Z,11.15
2019-03-26T09:35:59.092Z,10.60
2019-03-26T09:38:37.993Z,10.43
2019-03-26T09:40:53.818Z,7.62
2019-03-26T09:43:20.238Z,11.83
2019-03-26T09:45:46.833Z,20.05
2019-03-26T09:48:13.253Z,13.25
2019-03-26T09:50:39.732Z,13.83
2019-03-26T09:53:06.570Z,16.45
2019-03-26T09:55:33.063Z,12.50
2019-03-26T09:57:59.967Z,13.20
2019-03-26T10:00:26.680Z,18.45
2019-03-26T10:02:53.251Z,12.15
2019-03-26T10:05:19.814Z,16.77
2019-03-26T10:07:46.194Z,15.13
2019-03-26T10:10:14.063Z,19.37
2019-03-26T10:12:40.715Z,18.52
2019-03-26T10:15:08.052Z,19.20
2019-03-26T10:17:35.540Z,17.12
2019-03-26T10:20:04.427Z,12.43
2019-03-26T10:22:30.721Z,10.93
2019-03-26T10:24:57.472Z,11.80
2019-03-26T10:27:24.007Z,11.93
2019-03-26T10:29:50.382Z,10.43
2019-03-26T10:32:16.980Z,10.48
2019-03-26T10:34:43.390Z,13.40
2019-03-26T10:37:09.816Z,12.70
2019-03-26T10:39:36.211Z,12.47
2019-03-26T10:42:03.003Z,14.28
2019-03-26T10:44:29.379Z,16.15
2019-03-26T10:46:55.913Z,12.00
2019-03-26T10:49:24.005Z,16.50
2019-03-26T10:51:50.400Z,11.60
2019-03-26T10:54:17.186Z,13.08
2019-03-26T10:56:43.670Z,12.65
2019-03-26T10:59:10.064Z,13.43
2019-03-26T11:01:36.462Z,13.53
2019-03-26T11:04:03.090Z,14.35
2019-03-26T11:06:30.004Z,15.65
2019-03-26T11:08:56.576Z,17.70
2019-03-26T11:11:23.213Z,14.68
2019-03-26T11:13:49.783Z,18.90
2019-03-26T11:16:16.208Z,9.33
2019-03-26T11:18:42.783Z,8.85
2019-03-26T11:21:09.306Z,8.75
2019-03-26T11:23:35.888Z,8.43
2019-03-26T11:26:02.789Z,9.68
2019-03-26T11:28:29.414Z,9.40
2019-03-26T11:30:55.909Z,10.45
2019-03-26T11:33:22.351Z,9.08
2019-03-26T11:35:49.261Z,8.05
2019-03-26T11:38:18.353Z,9.08
2019-03-26T11:40:44.359Z,8.85
2019-03-26T11:43:11.066Z,7.20
2019-03-26T11:45:37.546Z,7.37
2019-03-26T11:48:04.124Z,7.15
2019-03-26T11:50:30.751Z,5.62
2019-03-26T11:52:57.260Z,7.00
2019-03-26T11:55:23.741Z,7.72
2019-03-26T11:57:50.451Z,9.50
2019-03-26T12:00:19.923Z,6.87
2019-03-26T12:02:46.696Z,6.22
2019-03-26T12:05:13.837Z,5.72
2019-03-26T12:07:42.814Z,5.45
2019-03-26T12:10:09.438Z,5.97
2019-03-26T12:12:36.142Z,6.10
2019-03-26T12:15:05.996Z,5.65
2019-03-26T12:17:32.277Z,5.03
2019-03-26T12:19:58.669Z,5.65
2019-03-26T12:22:25.398Z,6.20
2019-03-26T12:24:52.129Z,25.85
2019-03-26T12:27:18.611Z,8.68
2019-03-26T12:29:45.323Z,12.95
2019-03-26T12:32:11.906Z,10.08
2019-03-26T12:34:38.423Z,8.63
2019-03-26T12:37:05.050Z,5.10
2019-03-26T12:39:33.499Z,5.42
2019-03-26T12:42:00.239Z,6.17
2019-03-26T12:44:26.628Z,5.87
2019-03-26T12:46:53.140Z,4.12
2019-03-26T12:49:21.466Z,5.83
2019-03-26T12:51:47.859Z,4.80
2019-03-26T12:54:14.412Z,4.83
2019-03-26T12:56:40.797Z,4.58
2019-03-26T12:59:07.274Z,6.17
2019-03-26T13:01:33.656Z,4.60
2019-03-26T13:04:11.959Z,5.90
2019-03-26T13:06:28.806Z,5.33
2019-03-26T13:08:55.545Z,6.53
2019-03-26T13:11:22.036Z,7.35
2019-03-26T13:13:48.319Z,7.17
2019-03-26T13:16:15.219Z,4.92
2019-03-26T13:18:41.855Z,4.85
2019-03-26T13:21:08.230Z,4.20
2019-03-26T13:23:34.848Z,5.15
2019-03-26T13:26:01.634Z,5.15
2019-03-26T13:28:28.051Z,7.05
2019-03-26T13:30:54.452Z,9.55
2019-03-26T13:33:20.841Z,10.30
2019-03-26T13:35:47.606Z,9.98
2019-03-26T13:38:14.059Z,8.00
2019-03-26T13:40:40.439Z,7.85
2019-03-26T13:43:07.189Z,4.97
2019-03-26T13:45:33.595Z,14.95
2019-03-26T13:48:00.015Z,13.75
2019-03-26T13:50:26.490Z,11.20
2019-03-26T13:52:53.215Z,13.25
2019-03-26T13:55:19.493Z,9.60
2019-03-26T13:57:45.984Z,13.32
2019-03-26T14:00:14.445Z,13.48
2019-03-26T14:02:40.936Z,13.78
2019-03-26T14:05:26.035Z,13.18
2019-03-26T14:07:52.633Z,11.80
2019-03-26T14:10:19.319Z,15.83
2019-03-26T14:12:45.719Z,13.48
2019-03-26T14:15:13.265Z,17.60
2019-03-26T14:17:39.638Z,24.12
2019-03-26T14:20:06.523Z,16.93
2019-03-26T14:22:32.931Z,23.18
2019-03-26T14:24:59.324Z,18.25
2019-03-26T14:27:25.968Z,27.87
2019-03-26T14:29:52.396Z,19.07
2019-03-26T14:32:18.907Z,19.02
2019-03-26T14:34:48.954Z,16.70
2019-03-26T14:37:14.027Z,15.58
2019-03-26T14:39:40.503Z,15.00
2019-03-26T14:42:07.399Z,12.53
2019-03-26T14:44:34.098Z,12.93
2019-03-26T14:47:00.395Z,11.35
2019-03-26T14:49:27.119Z,15.10
2019-03-26T14:51:53.559Z,12.20
2019-03-26T14:54:20.066Z,12.33
2019-03-26T14:56:46.791Z,13.32
2019-03-26T14:59:13.083Z,21.68
2019-03-26T15:01:39.596Z,22.15
2019-03-26T15:04:06.174Z,34.95
2019-03-26T15:06:32.782Z,29.30
2019-03-26T15:08:59.176Z,27.95
2019-03-26T15:11:25.566Z,33.08
2019-03-26T15:13:52.267Z,23.85
2019-03-26T15:16:18.720Z,30.95
2019-03-26T15:18:45.308Z,34.75
2019-03-26T15:21:11.919Z,32.03
2019-03-26T15:23:38.295Z,29.30
2019-03-26T15:26:05.223Z,15.40
2019-03-26T15:28:31.707Z,26.75
2019-03-26T15:30:58.196Z,27.05
2019-03-26T15:33:24.598Z,33.98
2019-03-26T15:35:51.388Z,24.67
2019-03-26T15:38:17.779Z,37.65
2019-03-26T15:40:44.207Z,26.85
2019-03-26T15:43:10.617Z,27.73
2019-03-26T15:45:37.327Z,26.42
2019-03-26T15:48:04.248Z,26.90
2019-03-26T15:50:44.887Z,19.20
2019-03-26T15:53:12.573Z,17.80
2019-03-26T15:55:39.170Z,21.42
2019-03-26T15:58:06.077Z,17.45
2019-03-26T16:00:32.960Z,41.70
2019-03-26T16:02:59.459Z,69.00
2019-03-26T16:05:25.855Z,41.18
2019-03-26T16:07:52.423Z,26.15
2019-03-26T16:10:18.897Z,16.73
2019-03-26T16:12:45.375Z,15.43
2019-03-26T16:15:12.335Z,15.83
2019-03-26T16:17:38.834Z,19.02
2019-03-26T16:20:05.950Z,13.48
2019-03-26T16:22:32.462Z,18.62
2019-03-26T16:24:58.836Z,26.87
2019-03-26T16:27:25.226Z,21.93
2019-03-26T16:29:51.640Z,24.75
2019-03-26T16:32:18.020Z,17.20
2019-03-26T16:34:44.827Z,22.20
2019-03-26T16:37:11.308Z,31.62
2019-03-26T16:39:37.627Z,32.63
2019-03-26T16:42:04.239Z,24.75
2019-03-26T16:44:30.701Z,17.02
2019-03-26T16:46:57.117Z,19.05
2019-03-26T16:49:23.751Z,16.20
2019-03-26T16:51:50.142Z,24.50
2019-03-26T16:54:16.527Z,20.88
2019-03-26T16:56:43.459Z,18.87
2019-03-26T16:59:09.894Z,16.50
2019-03-26T17:01:36.295Z,16.75
2019-03-26T17:04:02.909Z,20.20
2019-03-26T17:06:29.388Z,24.92
2019-03-26T17:08:55.889Z,25.82
2019-03-26T17:11:22.272Z,26.70
2019-03-26T17:13:48.980Z,21.75
2019-03-26T17:16:15.482Z,15.53
2019-03-26T17:18:41.798Z,11.68
2019-03-26T17:21:08.353Z,13.35
2019-03-26T17:23:34.730Z,13.28
2019-03-26T17:26:01.012Z,10.72
2019-03-26T17:28:27.656Z,13.13
2019-03-26T17:30:54.036Z,27.93
2019-03-26T17:33:20.639Z,16.85
2019-03-26T17:35:47.015Z,18.80
2019-03-26T17:38:13.394Z,25.68
2019-03-26T17:40:39.708Z,15.98
2019-03-26T17:43:06.190Z,15.95
2019-03-26T17:45:32.559Z,19.75
2019-03-26T17:47:58.859Z,19.92
2019-03-26T17:50:25.482Z,15.55
2019-03-26T17:52:52.139Z,15.95
2019-03-26T17:55:18.630Z,14.95
2019-03-26T17:57:45.021Z,21.95
2019-03-26T18:00:14.673Z,18.77
2019-03-26T18:02:41.022Z,31.90
2019-03-26T18:05:18.750Z,13.28
2019-03-26T18:07:45.039Z,17.67
2019-03-26T18:10:11.428Z,21.85
2019-03-26T18:12:38.024Z,38.20
2019-03-26T18:15:04.735Z,40.78
2019-03-26T18:17:31.244Z,35.55
2019-03-26T18:19:57.519Z,35.38
2019-03-26T18:22:23.831Z,35.55
2019-03-26T18:24:50.153Z,25.35
2019-03-26T18:27:16.933Z,29.72
2019-03-26T18:29:43.647Z,32.88
2019-03-26T18:32:10.033Z,17.70
2019-03-26T18:34:36.613Z,13.95
2019-03-26T18:37:03.207Z,19.12
2019-03-26T18:39:29.591Z,27.65
2019-03-26T18:41:55.910Z,28.67
2019-03-26T18:44:22.227Z,24.12
2019-03-26T18:46:48.723Z,21.68
2019-03-26T18:49:15.021Z,13.95
2019-03-26T18:51:41.332Z,18.15
2019-03-26T18:54:07.716Z,18.17
2019-03-26T18:56:34.036Z,53.52
2019-03-26T18:59:00.456Z,42.67
2019-03-26T19:01:26.844Z,20.40
2019-03-26T19:03:53.824Z,26.55
2019-03-26T19:06:20.197Z,19.77
2019-03-26T19:08:46.703Z,16.15
2019-03-26T19:11:13.076Z,13.40
2019-03-26T19:13:39.467Z,16.10
2019-03-26T19:16:05.969Z,17.42
2019-03-26T19:18:32.263Z,19.25
2019-03-26T19:21:02.338Z,13.45
2019-03-26T19:23:27.216Z,19.50
2019-03-26T19:25:53.494Z,19.50
2019-03-26T19:28:21.604Z,16.80
2019-03-26T19:30:48.025Z,16.70
2019-03-26T19:33:14.439Z,16.00
2019-03-26T19:35:40.846Z,18.92
2019-03-26T19:38:07.228Z,15.28
2019-03-26T19:40:33.808Z,12.60
2019-03-26T19:43:10.140Z,12.07
2019-03-26T19:45:28.472Z,13.03
2019-03-26T19:47:54.783Z,13.40
2019-03-26T19:50:21.319Z,17.23
2019-03-26T19:52:47.775Z,10.18
2019-03-26T19:55:14.389Z,10.00
2019-03-26T19:57:41.079Z,9.68
2019-03-26T20:00:13.240Z,11.35
2019-03-26T20:02:39.981Z,10.25
2019-03-26T20:05:06.793Z,9.23
2019-03-26T20:07:34.813Z,13.93
2019-03-26T20:10:01.196Z,10.38
2019-03-26T20:12:27.585Z,8.10
2019-03-26T20:14:54.064Z,16.75
2019-03-26T20:17:20.631Z,5.47
2019-03-26T20:19:46.911Z,5.92
2019-03-26T20:22:13.224Z,8.03
2019-03-26T20:24:39.595Z,6.55
2019-03-26T20:27:06.199Z,8.70
2019-03-26T20:29:32.696Z,8.63
2019-03-26T20:31:59.203Z,8.65
2019-03-26T20:34:25.483Z,9.28
2019-03-26T20:36:52.208Z,8.95
2019-03-26T20:39:18.536Z,9.80
2019-03-26T20:41:45.042Z,12.30
2019-03-26T20:44:11.858Z,15.88
2019-03-26T20:46:38.131Z,19.60
2019-03-26T20:49:05.083Z,24.90
2019-03-26T20:51:31.471Z,24.75
2019-03-26T20:53:58.061Z,18.92
2019-03-26T20:56:24.571Z,22.13
2019-03-26T20:58:51.036Z,17.10
2019-03-26T21:01:17.762Z,17.35
2019-03-26T21:03:44.191Z,17.60
2019-03-26T21:06:10.728Z,20.92
2019-03-26T21:08:37.202Z,20.32
2019-03-26T21:11:03.909Z,22.17
2019-03-26T21:13:30.699Z,18.20
2019-03-26T21:15:57.791Z,16.50
2019-03-26T21:18:24.349Z,11.90
2019-03-26T21:20:50.931Z,9.75
2019-03-26T21:23:17.680Z,9.55
2019-03-26T21:25:44.207Z,11.38
2019-03-26T21:28:10.931Z,9.48
2019-03-26T21:30:37.621Z,12.58
2019-03-26T21:33:04.004Z,15.70
2019-03-26T21:35:30.316Z,14.28
2019-03-26T21:37:56.744Z,16.62
2019-03-26T21:40:23.261Z,29.32
2019-03-26T21:42:49.667Z,12.95
2019-03-26T21:45:21.754Z,11.43
2019-03-26T21:47:48.614Z,15.13
2019-03-26T21:50:15.356Z,15.85
2019-03-26T21:52:41.735Z,17.07
2019-03-26T21:55:09.114Z,13.08
2019-03-26T21:57:35.615Z,13.85
2019-03-26T22:00:05.886Z,16.30
2019-03-26T22:02:32.645Z,18.62
2019-03-26T22:04:59.775Z,17.20
2019-03-26T22:07:26.499Z,13.43
2019-03-26T22:09:53.389Z,11.30
2019-03-26T22:12:20.982Z,10.18
2019-03-26T22:14:47.995Z,8.73
2019-03-26T22:17:14.627Z,8.63
2019-03-26T22:19:41.382Z,10.15
2019-03-26T22:22:08.273Z,9.75
2019-03-26T22:24:34.772Z,8.55
2019-03-26T22:27:01.206Z,8.43
2019-03-26T22:29:27.490Z,10.30
2019-03-26T22:31:54.088Z,18.35
2019-03-26T22:34:20.540Z,13.18
2019-03-26T22:36:47.176Z,10.35
2019-03-26T22:39:13.566Z,15.88
2019-03-26T22:41:40.019Z,8.70
2019-03-26T22:44:06.311Z,10.43
2019-03-26T22:46:32.803Z,9.88
2019-03-26T22:48:59.192Z,14.07
2019-03-26T22:51:25.503Z,11.78
2019-03-26T22:53:51.895Z,13.80
2019-03-26T22:56:18.394Z,14.63
2019-03-26T22:58:44.689Z,19.57
2019-03-26T23:01:12.022Z,14.23
2019-03-26T23:03:38.553Z,18.23
2019-03-26T23:06:05.023Z,13.93
2019-03-26T23:08:31.637Z,12.33
2019-03-26T23:10:58.051Z,11.85
2019-03-26T23:13:24.368Z,13.72
2019-03-26T23:15:51.308Z,24.55
2019-03-26T23:18:18.127Z,14.15
2019-03-26T23:20:44.395Z,20.80
2019-03-26T23:23:10.989Z,17.55
2019-03-26T23:25:37.383Z,15.58
2019-03-26T23:28:03.762Z,18.30
2019-03-26T23:30:30.084Z,14.35
2019-03-26T23:32:56.355Z,17.02
2019-03-26T23:35:22.999Z,13.88
2019-03-26T23:37:49.375Z,20.23
2019-03-26T23:40:16.377Z,20.85
2019-03-26T23:42:43.011Z,19.55
2019-03-26T23:45:10.003Z,19.35
2019-03-26T23:47:36.426Z,23.05
2019-03-26T23:50:07.002Z,16.70
2019-03-26T23:52:33.446Z,19.50
2019-03-26T23:54:59.824Z,18.17
2019-03-26T23:57:26.552Z,20.75
2019-03-26T23:59:52.930Z,15.48
